createdAt,value
2022-11-22T00:01:24.495Z,0.86
2022-11-22T00:04:26.105Z,0.91
2022-11-22T00:07:27.853Z,0.85
2022-11-22T00:10:30.988Z,0.85
2022-11-22T00:13:32.827Z,0.55
2022-11-22T00:16:34.451Z,0.66
2022-11-22T00:19:36.018Z,0.64
2022-11-22T00:22:43.929Z,0.65
2022-11-22T00:25:47.547Z,0.74
2022-11-22T00:28:49.192Z,0.79
2022-11-22T00:31:50.811Z,0.90
2022-11-22T00:34:52.534Z,0.92
2022-11-22T00:37:54.165Z,1.01
2022-11-22T00:40:57.196Z,1.03
2022-11-22T00:43:58.805Z,0.91
2022-11-22T00:47:00.467Z,0.82
2022-11-22T00:50:02.138Z,0.90
2022-11-22T00:53:04.002Z,0.92
2022-11-22T00:56:07.065Z,0.86
2022-11-22T00:59:08.696Z,0.90
2022-11-22T01:02:10.362Z,0.98
2022-11-22T01:05:11.970Z,1.01
2022-11-22T01:08:13.603Z,1.06
2022-11-22T01:11:17.101Z,1.04
2022-11-22T01:14:18.917Z,1.04
2022-11-22T01:17:20.577Z,0.98
2022-11-22T01:20:22.221Z,0.98
2022-11-22T01:23:23.929Z,0.99
2022-11-22T01:26:26.923Z,1.04
2022-11-22T01:29:28.917Z,1.12
2022-11-22T01:32:30.714Z,1.02
2022-11-22T01:35:32.410Z,0.96
2022-11-22T01:38:34.068Z,1.00
2022-11-22T01:41:37.065Z,0.96
2022-11-22T01:44:40.222Z,0.92
2022-11-22T01:47:41.860Z,0.95
2022-11-22T01:50:44.549Z,1.02
2022-11-22T01:53:46.325Z,0.99
2022-11-22T01:56:52.258Z,0.97
2022-11-22T01:59:55.752Z,0.80
2022-11-22T02:03:00.512Z,0.80
2022-11-22T02:06:02.781Z,0.78
2022-11-22T02:09:07.446Z,0.82
2022-11-22T02:12:12.033Z,0.72
2022-11-22T02:15:14.286Z,0.66
2022-11-22T02:18:16.149Z,0.57
2022-11-22T02:21:17.937Z,0.63
2022-11-22T02:24:24.136Z,0.59
2022-11-22T02:27:27.659Z,0.69
2022-11-22T02:30:29.349Z,0.57
2022-11-22T02:33:31.175Z,0.62
2022-11-22T02:36:35.291Z,0.62
2022-11-22T02:39:37.453Z,0.66
2022-11-22T02:42:42.436Z,0.68
2022-11-22T02:45:44.479Z,0.73
2022-11-22T02:48:46.472Z,0.78
2022-11-22T02:51:48.406Z,0.81
2022-11-22T02:54:50.119Z,0.69
2022-11-22T02:57:53.218Z,0.71
2022-11-22T03:00:54.917Z,0.67
2022-11-22T03:03:56.803Z,0.68
2022-11-22T03:06:59.353Z,0.77
2022-11-22T03:10:01.059Z,0.81
2022-11-22T03:13:04.173Z,0.77
2022-11-22T03:16:05.893Z,0.81
2022-11-22T03:19:07.641Z,0.70
2022-11-22T03:22:11.447Z,0.74
2022-11-22T03:25:13.440Z,0.79
2022-11-22T03:28:16.501Z,0.77
2022-11-22T03:31:18.223Z,0.80
2022-11-22T03:34:19.960Z,0.86
2022-11-22T03:37:21.675Z,0.71
2022-11-22T03:40:23.359Z,0.77
2022-11-22T03:43:26.456Z,0.80
2022-11-22T03:46:28.152Z,0.86
2022-11-22T03:49:30.386Z,0.79
2022-11-22T03:52:32.303Z,0.73
2022-11-22T03:55:33.996Z,0.72
2022-11-22T03:58:37.082Z,0.70
2022-11-22T04:01:38.861Z,0.73
2022-11-22T04:04:40.897Z,0.73
2022-11-22T04:07:42.601Z,0.72
2022-11-22T04:10:44.310Z,0.76
2022-11-22T04:13:47.485Z,0.77
2022-11-22T04:16:49.182Z,0.76
2022-11-22T04:19:50.944Z,0.72
2022-11-22T04:22:55.807Z,0.71
2022-11-22T04:25:57.543Z,0.61
2022-11-22T04:29:09.665Z,0.49
2022-11-22T04:32:11.960Z,0.26
2022-11-22T04:35:14.501Z,0.41
2022-11-22T04:38:16.905Z,0.13
2022-11-22T04:41:18.746Z,0.28
2022-11-22T04:44:22.019Z,0.42
2022-11-22T04:47:23.664Z,0.50
2022-11-22T04:50:25.775Z,0.70
2022-11-22T04:53:27.497Z,0.80
2022-11-22T04:56:29.189Z,0.85
2022-11-22T04:59:32.465Z,0.85
2022-11-22T05:02:34.308Z,0.85
2022-11-22T05:05:36.292Z,0.84
2022-11-22T05:08:37.990Z,0.78
2022-11-22T05:11:39.709Z,0.74
2022-11-22T05:14:42.699Z,0.75
2022-11-22T05:17:44.389Z,0.80
2022-11-22T05:20:46.154Z,0.84
2022-11-22T05:23:47.822Z,0.90
2022-11-22T05:26:49.488Z,0.94
2022-11-22T05:29:52.565Z,0.88
2022-11-22T05:32:54.832Z,0.93
2022-11-22T05:35:57.670Z,0.92
2022-11-22T05:38:59.793Z,0.82
2022-11-22T05:42:01.553Z,0.84
2022-11-22T05:45:04.990Z,0.84
2022-11-22T05:48:06.724Z,0.83
2022-11-22T05:51:09.518Z,0.73
2022-11-22T05:54:11.215Z,0.80
2022-11-22T05:57:12.967Z,0.81
2022-11-22T06:00:16.870Z,0.89
2022-11-22T06:03:18.552Z,0.77
2022-11-22T06:06:20.358Z,0.80
2022-11-22T06:09:22.047Z,0.81
2022-11-22T06:12:23.742Z,0.81
2022-11-22T06:15:26.772Z,0.88
2022-11-22T06:18:28.491Z,0.86
2022-11-22T06:21:30.310Z,0.90
2022-11-22T06:24:32.069Z,0.93
2022-11-22T06:27:33.831Z,0.97
2022-11-22T06:30:36.905Z,0.97
2022-11-22T06:33:38.735Z,1.04
2022-11-22T06:36:40.641Z,1.08
2022-11-22T06:39:42.334Z,1.13
2022-11-22T06:42:44.040Z,1.19
2022-11-22T06:45:47.109Z,1.18
2022-11-22T06:48:49.696Z,1.26
2022-11-22T06:51:51.348Z,1.30
2022-11-22T06:54:53.063Z,1.30
2022-11-22T06:57:54.756Z,1.32
2022-11-22T07:01:01.086Z,1.36
2022-11-22T07:04:03.676Z,1.42
2022-11-22T07:07:05.450Z,1.45
2022-11-22T07:10:07.450Z,1.50
2022-11-22T07:13:09.173Z,1.51
2022-11-22T07:16:13.462Z,1.40
2022-11-22T07:19:15.263Z,1.06
2022-11-22T07:22:16.968Z,0.62
2022-11-22T07:25:18.769Z,0.71
2022-11-22T07:28:20.705Z,1.07
2022-11-22T07:31:23.848Z,1.09
2022-11-22T07:34:25.586Z,1.11
2022-11-22T07:37:27.310Z,1.26
2022-11-22T07:40:29.115Z,1.30
2022-11-22T07:43:31.394Z,1.45
2022-11-22T07:46:34.516Z,1.44
2022-11-22T07:49:36.243Z,1.26
2022-11-22T07:52:38.260Z,1.44
2022-11-22T07:55:40.042Z,1.57
2022-11-22T07:58:41.898Z,1.51
2022-11-22T08:01:45.113Z,1.34
2022-11-22T08:04:46.844Z,1.31
2022-11-22T08:07:49.311Z,1.27
2022-11-22T08:10:51.015Z,1.32
2022-11-22T08:13:52.715Z,1.42
2022-11-22T08:16:55.848Z,1.49
2022-11-22T08:19:57.585Z,1.55
2022-11-22T08:22:59.309Z,1.67
2022-11-22T08:26:01.151Z,1.70
2022-11-22T08:29:03.842Z,1.82
2022-11-22T08:32:06.981Z,1.79
2022-11-22T08:35:09.049Z,1.81
2022-11-22T08:38:10.722Z,1.73
2022-11-22T08:41:12.448Z,1.79
2022-11-22T08:44:14.145Z,1.81
2022-11-22T08:47:17.401Z,1.94
2022-11-22T08:50:19.370Z,2.03
2022-11-22T08:53:21.320Z,2.07
2022-11-22T08:56:23.067Z,2.13
2022-11-22T08:59:24.799Z,2.17
2022-11-22T09:02:28.000Z,2.19
2022-11-22T09:05:30.907Z,2.26
2022-11-22T09:08:36.375Z,2.19
2022-11-22T09:11:40.254Z,2.24
2022-11-22T09:14:42.487Z,2.33
2022-11-22T09:17:45.626Z,2.21
2022-11-22T09:20:47.299Z,2.25
2022-11-22T09:23:50.342Z,2.30
2022-11-22T09:26:52.005Z,2.21
2022-11-22T09:29:53.748Z,2.17
2022-11-22T09:32:57.611Z,2.22
2022-11-22T09:35:59.781Z,2.36
2022-11-22T09:39:01.514Z,2.45
2022-11-22T09:42:18.044Z,2.54
2022-11-22T09:45:33.133Z,2.53
2022-11-22T09:48:42.700Z,2.60
2022-11-22T09:51:47.987Z,2.63
2022-11-22T09:54:53.367Z,2.72
2022-11-22T09:58:02.397Z,2.77
2022-11-22T10:01:08.656Z,2.77
2022-11-22T10:04:14.435Z,2.76
2022-11-22T10:07:18.948Z,2.81
2022-11-22T10:10:23.724Z,2.83
2022-11-22T10:13:29.403Z,2.86
2022-11-22T10:16:33.061Z,2.91
2022-11-22T10:19:39.432Z,3.00
2022-11-22T10:22:41.154Z,2.94
2022-11-22T10:25:45.688Z,2.99
2022-11-22T10:28:51.141Z,2.90
2022-11-22T10:31:57.763Z,2.90
2022-11-22T10:35:11.237Z,2.92
2022-11-22T10:38:32.151Z,2.96
2022-11-22T10:41:40.650Z,2.96
2022-11-22T10:44:47.460Z,2.98
2022-11-22T10:48:01.572Z,2.99
2022-11-22T10:51:09.663Z,3.02
2022-11-22T10:54:15.335Z,3.07
2022-11-22T10:57:25.000Z,2.95
2022-11-22T11:00:28.975Z,2.90
2022-11-22T11:03:32.874Z,2.87
2022-11-22T11:10:11.282Z,2.86
2022-11-22T11:13:18.049Z,2.90
2022-11-22T11:16:21.576Z,2.98
2022-11-22T11:19:23.837Z,2.93
2022-11-22T11:23:06.340Z,2.87
2022-11-22T11:25:57.074Z,2.86
2022-11-22T11:29:13.569Z,2.79
2022-11-22T11:32:15.809Z,2.87
2022-11-22T11:35:17.611Z,2.87
2022-11-22T11:38:31.717Z,2.79
2022-11-22T11:41:36.265Z,2.74
2022-11-22T11:44:40.483Z,2.93
2022-11-22T11:47:42.254Z,2.87
2022-11-22T11:50:43.995Z,2.89
2022-11-22T11:53:54.015Z,2.95
2022-11-22T11:56:56.843Z,2.90
2022-11-22T11:59:59.620Z,2.97
2022-11-22T12:03:05.659Z,2.94
2022-11-22T12:06:14.093Z,2.92
2022-11-22T12:09:28.053Z,2.98
2022-11-22T12:12:43.650Z,3.03
2022-11-22T12:15:51.243Z,3.01
2022-11-22T12:18:56.630Z,3.03
2022-11-22T12:22:01.532Z,3.08
2022-11-22T12:25:31.566Z,3.12
2022-11-22T12:28:33.237Z,3.11
2022-11-22T12:31:37.135Z,3.13
2022-11-22T12:34:45.528Z,3.12
2022-11-22T12:37:51.038Z,3.15
2022-11-22T12:40:56.310Z,3.17
2022-11-22T12:44:00.539Z,3.18
2022-11-22T12:47:06.621Z,3.20
2022-11-22T12:50:10.539Z,3.25
2022-11-22T12:53:13.364Z,3.23
2022-11-22T12:56:24.445Z,3.23
2022-11-22T12:59:31.910Z,3.28
2022-11-22T13:02:37.586Z,3.28
2022-11-22T13:05:43.464Z,3.34
2022-11-22T13:08:54.580Z,3.35
2022-11-22T13:12:02.990Z,3.34
2022-11-22T13:15:04.996Z,3.31
2022-11-22T13:18:10.452Z,3.21
2022-11-22T13:21:18.037Z,3.15
2022-11-22T13:24:27.368Z,3.08
2022-11-22T13:27:32.520Z,3.08
2022-11-22T13:30:35.346Z,3.08
2022-11-22T13:33:37.498Z,3.04
2022-11-22T13:36:39.821Z,3.11
2022-11-22T13:39:43.488Z,2.91
2022-11-22T13:42:46.672Z,3.01
2022-11-22T13:45:49.061Z,2.93
2022-11-22T13:49:09.830Z,2.88
2022-11-22T13:52:49.572Z,2.98
2022-11-22T13:55:51.819Z,2.84
2022-11-22T13:59:03.765Z,2.78
2022-11-22T14:02:21.417Z,2.65
2022-11-22T14:05:25.313Z,2.71
2022-11-22T14:08:29.227Z,2.58
2022-11-22T14:11:40.486Z,2.65
2022-11-22T14:14:50.258Z,2.74
2022-11-22T14:18:00.547Z,2.80
2022-11-22T14:21:03.770Z,2.69
2022-11-22T14:24:09.715Z,2.76
2022-11-22T14:27:17.185Z,2.74
2022-11-22T14:30:21.591Z,2.82
2022-11-22T14:33:24.783Z,2.87
2022-11-22T14:36:26.531Z,2.92
2022-11-22T14:39:47.091Z,2.94
2022-11-22T14:42:52.707Z,2.90
2022-11-22T14:45:58.628Z,2.90
2022-11-22T14:49:03.288Z,2.73
2022-11-22T14:52:05.612Z,2.80
2022-11-22T14:55:13.047Z,2.71
2022-11-22T14:58:21.130Z,2.85
2022-11-22T15:01:35.402Z,2.70
2022-11-22T15:09:16.279Z,2.70
2022-11-22T15:09:22.734Z,2.76
2022-11-22T15:11:49.066Z,2.67
2022-11-22T15:59:38.960Z,2.99
2022-11-22T16:02:48.391Z,2.99
2022-11-22T16:06:10.132Z,3.06
2022-11-22T16:09:23.231Z,3.06
2022-11-22T16:12:29.023Z,3.13
2022-11-22T16:15:32.220Z,3.21
2022-11-22T16:18:34.013Z,3.18
2022-11-22T16:21:35.762Z,3.18
2022-11-22T16:24:38.983Z,3.07
2022-11-22T16:27:45.636Z,3.02
2022-11-22T16:30:47.488Z,3.13
2022-11-22T16:33:49.879Z,3.16
2022-11-22T16:36:52.061Z,3.16
2022-11-22T16:39:55.806Z,3.16
2022-11-22T16:42:58.069Z,3.17
2022-11-22T16:46:00.215Z,3.22
2022-11-22T16:49:11.495Z,3.19
2022-11-22T16:52:14.738Z,3.16
2022-11-22T16:55:19.337Z,3.13
2022-11-22T16:58:22.558Z,3.15
2022-11-22T17:01:25.080Z,3.15
2022-11-22T17:04:28.263Z,3.16
2022-11-22T17:07:30.580Z,3.18
2022-11-22T17:10:37.237Z,3.22
2022-11-22T17:13:39.383Z,3.23
2022-11-22T17:16:41.745Z,3.22
2022-11-22T17:19:53.127Z,3.21
2022-11-22T17:22:57.079Z,3.13
2022-11-22T17:26:01.914Z,3.15
2022-11-22T17:29:03.902Z,3.16
2022-11-22T17:32:05.914Z,3.14
2022-11-22T17:35:09.392Z,3.22
2022-11-22T17:38:11.723Z,3.22
2022-11-22T17:41:15.864Z,3.24
2022-11-22T17:44:18.398Z,3.26
2022-11-22T17:47:20.439Z,3.26
2022-11-22T17:50:22.841Z,3.25
2022-11-22T17:53:25.225Z,3.26
2022-11-22T17:56:28.869Z,3.30
2022-11-22T17:59:31.884Z,3.30
2022-11-22T18:02:35.310Z,3.30
2022-11-22T18:05:37.455Z,3.28
2022-11-22T18:08:43.870Z,3.25
2022-11-22T18:11:50.907Z,3.24
2022-11-22T18:14:53.348Z,3.26
2022-11-22T18:17:55.408Z,3.27
2022-11-22T18:20:57.684Z,3.28
2022-11-22T18:24:01.177Z,3.28
2022-11-22T18:27:05.306Z,3.31
2022-11-22T18:30:08.666Z,3.44
2022-11-22T18:33:11.302Z,3.36
2022-11-22T18:36:53.426Z,3.30
2022-11-22T18:39:43.502Z,3.31
2022-11-22T18:42:48.233Z,3.34
2022-11-22T18:45:50.737Z,3.33
2022-11-22T18:48:52.917Z,3.34
2022-11-22T18:51:55.176Z,3.36
2022-11-22T18:54:58.280Z,3.36
2022-11-22T18:58:02.245Z,3.31
2022-11-22T19:01:12.519Z,3.27
2022-11-22T19:04:14.977Z,3.31
2022-11-22T19:07:17.793Z,3.35
2022-11-22T19:10:21.309Z,3.37
2022-11-22T19:13:25.852Z,3.37
2022-11-22T19:16:28.524Z,3.35
2022-11-22T19:19:31.107Z,3.33
2022-11-22T19:22:35.301Z,3.24
2022-11-22T19:25:38.102Z,3.21
2022-11-22T19:28:43.372Z,3.04
2022-11-22T19:31:45.896Z,3.10
2022-11-22T19:34:48.652Z,3.04
2022-11-22T19:37:51.739Z,3.00
2022-11-22T19:40:55.692Z,3.02
2022-11-22T19:43:59.876Z,3.00
2022-11-22T19:47:02.405Z,3.03
2022-11-22T19:50:04.443Z,2.99
2022-11-22T19:53:07.618Z,3.04
2022-11-22T19:56:12.640Z,3.06
2022-11-22T19:59:16.314Z,3.10
2022-11-22T20:02:18.756Z,3.11
2022-11-22T20:05:22.840Z,3.06
2022-11-22T20:08:25.619Z,3.17
2022-11-22T20:11:28.813Z,3.13
2022-11-22T20:14:33.247Z,3.17
2022-11-22T20:17:36.131Z,3.16
2022-11-22T20:20:39.997Z,3.10
2022-11-22T20:23:43.542Z,3.10
2022-11-22T20:26:46.827Z,3.13
2022-11-22T20:29:50.964Z,3.14
2022-11-22T20:32:53.472Z,3.16
2022-11-22T20:36:02.095Z,3.18
2022-11-22T20:39:09.867Z,3.16
2022-11-22T20:45:39.475Z,3.17
2022-11-22T20:48:43.539Z,3.21
2022-11-22T20:51:45.919Z,3.24
2022-11-22T20:54:47.672Z,3.21
2022-11-22T20:57:49.746Z,3.21
2022-11-22T21:00:53.755Z,3.19
2022-11-22T21:03:56.016Z,3.25
2022-11-22T21:06:58.380Z,3.26
2022-11-22T21:10:01.485Z,3.25
2022-11-22T21:13:03.198Z,3.25
2022-11-22T21:16:21.725Z,3.24
2022-11-22T21:19:24.383Z,3.27
2022-11-22T21:22:31.507Z,3.29
2022-11-22T21:25:33.778Z,3.27
2022-11-22T21:28:35.649Z,3.26
2022-11-22T21:31:38.776Z,3.24
2022-11-22T21:34:40.448Z,3.25
2022-11-22T21:37:42.192Z,3.31
2022-11-22T21:40:49.339Z,3.17
2022-11-22T21:43:53.438Z,3.19
2022-11-22T21:46:56.570Z,3.20
2022-11-22T21:49:58.183Z,3.26
2022-11-22T21:52:59.914Z,3.23
2022-11-22T21:56:01.558Z,3.24
2022-11-22T21:59:03.332Z,3.24
2022-11-22T22:02:06.379Z,3.25
2022-11-22T22:05:08.223Z,3.27
2022-11-22T22:08:09.927Z,3.27
2022-11-22T22:11:11.629Z,3.29
2022-11-22T22:14:13.609Z,3.31
2022-11-22T22:17:16.627Z,3.28
2022-11-22T22:20:18.307Z,3.27
2022-11-22T22:23:20.030Z,3.27
2022-11-22T22:26:21.714Z,3.27
2022-11-22T22:29:23.351Z,3.23
2022-11-22T22:32:26.453Z,3.25
2022-11-22T22:35:28.076Z,3.26
2022-11-22T22:38:30.080Z,3.26
2022-11-22T22:41:31.865Z,3.26
2022-11-22T22:44:33.646Z,3.27
2022-11-22T22:47:36.706Z,3.27
2022-11-22T22:50:38.452Z,3.27
2022-11-22T22:53:40.130Z,3.27
2022-11-22T22:56:41.768Z,3.27
2022-11-22T22:59:43.432Z,3.27
2022-11-22T23:02:46.624Z,3.24
2022-11-22T23:05:48.304Z,3.27
2022-11-22T23:08:50.776Z,3.24
2022-11-22T23:11:52.427Z,3.23
2022-11-22T23:14:54.155Z,3.26
2022-11-22T23:17:57.260Z,3.24
2022-11-22T23:20:59.067Z,3.25
2022-11-22T23:24:00.841Z,3.26
2022-11-22T23:27:02.511Z,3.24
2022-11-22T23:30:04.622Z,3.27
2022-11-22T23:33:07.772Z,3.25
2022-11-22T23:36:10.273Z,3.25
2022-11-22T23:39:11.933Z,3.27
2022-11-22T23:42:13.570Z,3.19
2022-11-22T23:45:15.248Z,3.21
2022-11-22T23:48:18.363Z,3.18
2022-11-22T23:51:20.309Z,3.20
2022-11-22T23:54:21.952Z,3.21
2022-11-22T23:57:23.668Z,3.20
